Time;durP1;ratioP1;P1;durP2;ratioP2;P2;SDS_P1;SDS_P2;PMS_P1;PMS_P2;Temp;Humidity;BMP_temperature;BMP_pressure;BME280_temperature;BME280_humidity;BME280_pressure;Samples;Min_cycle;Max_cycle;Signal;HPM_P1;HPM_P2
2022/07/28 00:00:32;;;;;;;0.73;0.70;;;;;;;22.34;100.00;95129.38;5073993;28;20509;-57
2022/07/28 00:03:01;;;;;;;2.13;0.83;;;;;;;21.87;100.00;95130.06;5074285;28;20989;-57
2022/07/28 00:05:31;;;;;;;4.90;1.60;;;;;;;21.98;100.00;95127.66;5074274;28;20555;-57
2022/07/28 00:08:01;;;;;;;2.70;1.00;;;;;;;21.69;100.00;95084.81;5074595;28;20428;-57
2022/07/28 00:10:31;;;;;;;0.57;0.50;;;;;;;22.44;100.00;95132.31;5074200;28;21133;-57
2022/07/28 00:12:59;;;;;;;1.97;0.67;;;;;;;22.23;100.00;95145.28;5074172;28;20433;-57
2022/07/28 00:15:28;;;;;;;6.53;0.93;;;;;;;22.05;100.00;95144.84;5074470;28;20443;-57
2022/07/28 00:17:56;;;;;;;0.47;0.37;;;;;;;22.06;100.00;95138.28;5073942;28;20872;-57
2022/07/28 00:20:26;;;;;;;0.70;0.70;;;;;;;21.88;100.00;95093.84;5073865;28;20480;-57
2022/07/28 00:22:56;;;;;;;1.73;1.63;;;;;;;22.06;100.00;95137.53;5074237;28;20471;-57
2022/07/28 00:25:25;;;;;;;0.80;0.70;;;;;;;22.20;100.00;95151.38;5074120;28;20845;-57
2022/07/28 00:27:53;;;;;;;1.23;1.23;;;;;;;22.26;100.00;95154.63;5073861;28;20517;-57
2022/07/28 00:30:22;;;;;;;1.87;1.77;;;;;;;21.70;100.00;95135.75;5073789;28;20988;-57
2022/07/28 00:32:50;;;;;;;1.13;0.57;;;;;;;22.06;100.00;95149.09;5073756;28;20421;-58
2022/07/28 00:35:19;;;;;;;0.80;0.80;;;;;;;21.78;100.00;95142.13;5073622;28;20434;-57
2022/07/28 00:38:00;;;;;;;1.53;1.47;;;;;;;21.44;100.00;95143.47;5073982;28;20545;-57
2022/07/28 00:43:11;;;;;;;4.10;1.10;;;;;;;22.07;100.00;95139.88;5073087;28;20480;-57
2022/07/28 00:45:39;;;;;;;1.67;1.00;;;;;;;22.30;100.00;95131.97;5073656;28;20456;-57
2022/07/28 00:48:08;;;;;;;1.17;0.40;;;;;;;22.38;100.00;95128.31;5073403;28;20546;-57
2022/07/28 00:50:39;;;;;;;0.67;0.67;;;;;;;22.08;100.00;95121.75;5073308;28;20469;-57
2022/07/28 00:53:09;;;;;;;1.83;1.07;;;;;;;22.03;100.00;95122.03;5073344;28;20429;-58
2022/07/28 00:55:40;;;;;;;0.50;0.40;;;;;;;21.73;100.00;95113.47;5073574;28;20508;-57
2022/07/28 00:58:28;;;;;;;0.90;0.83;;;;;;;21.76;100.00;95060.72;5073125;28;20625;-58
2022/07/28 01:00:57;;;;;;;0.60;0.53;;;;;;;22.17;100.00;95114.28;5073032;28;20908;-57
2022/07/28 01:03:26;;;;;;;1.43;1.33;;;;;;;21.69;100.00;95120.69;5072995;28;20563;-58
2022/07/28 01:06:06;;;;;;;0.50;0.50;;;;;;;21.56;100.00;95121.06;5072991;28;20436;-58
2022/07/28 01:08:43;;;;;;;3.13;0.87;;;;;;;21.95;100.00;95117.56;5072327;28;20515;-58
2022/07/28 01:11:21;;;;;;;0.67;0.60;;;;;;;22.25;100.00;95118.72;5073144;28;20880;-57
2022/07/28 01:13:54;;;;;;;0.70;0.70;;;;;;;22.33;100.00;95125.09;5072705;28;20960;-58
2022/07/28 01:16:23;;;;;;;0.57;0.50;;;;;;;22.49;100.00;95109.69;5072355;28;21040;-57
2022/07/28 01:18:58;;;;;;;0.70;0.67;;;;;;;22.32;100.00;95118.09;5072581;28;20554;-57
2022/07/28 01:21:33;;;;;;;1.23;1.13;;;;;;;22.17;100.00;95125.06;5072408;28;20448;-58
2022/07/28 01:24:22;;;;;;;0.67;0.40;;;;;;;22.22;100.00;95124.81;5072513;28;20555;-57
2022/07/28 01:26:57;;;;;;;1.00;1.00;;;;;;;21.94;100.00;95118.69;5072657;28;20873;-58
2022/07/28 01:29:51;;;;;;;0.87;0.87;;;;;;;21.95;100.00;95128.34;5072473;28;20429;-58
2022/07/28 01:32:24;;;;;;;0.93;0.83;;;;;;;22.27;100.00;95119.16;5069407;28;20524;-57
2022/07/28 01:34:58;;;;;;;1.60;1.17;;;;;;;22.59;100.00;95120.72;5072796;28;20421;-57
2022/07/28 01:37:30;;;;;;;0.60;0.50;;;;;;;22.59;100.00;95123.41;5072505;28;20459;-58
2022/07/28 01:40:04;;;;;;;2.30;1.00;;;;;;;22.27;100.00;95135.34;5072509;28;20438;-58
2022/07/28 01:42:37;;;;;;;1.70;0.63;;;;;;;22.00;100.00;95091.09;5072539;28;20504;-58
2022/07/28 01:45:08;;;;;;;1.90;1.37;;;;;;;22.35;100.00;95133.63;5072345;28;20512;-58
2022/07/28 01:47:39;;;;;;;0.60;0.60;;;;;;;22.47;100.00;95130.84;5072016;28;20894;-58
2022/07/28 01:50:11;;;;;;;0.90;0.73;;;;;;;22.48;100.00;95133.19;5072376;28;20417;-58
2022/07/28 01:52:41;;;;;;;0.67;0.67;;;;;;;22.47;100.00;95131.63;5072307;28;20941;-58
2022/07/28 01:55:12;;;;;;;1.47;1.40;;;;;;;22.55;100.00;95124.47;5072529;28;20484;-58
2022/07/28 01:57:41;;;;;;;0.53;0.53;;;;;;;22.49;100.00;95129.34;5072564;28;20437;-58
2022/07/28 02:00:12;;;;;;;1.07;0.90;;;;;;;22.52;100.00;95122.47;5072307;28;20425;-58
2022/07/28 02:02:45;;;;;;;0.60;0.60;;;;;;;22.33;100.00;95135.91;5072205;28;20469;-58
2022/07/28 02:05:16;;;;;;;0.60;0.50;;;;;;;22.20;100.00;95143.28;5071852;28;20556;-58
2022/07/28 02:07:51;;;;;;;0.50;0.30;;;;;;;22.16;100.00;95142.41;5071785;28;20421;-58
2022/07/28 02:10:21;;;;;;;0.40;0.30;;;;;;;22.00;100.00;95131.59;5071988;28;20532;-58
2022/07/28 02:12:51;;;;;;;1.33;1.13;;;;;;;21.77;100.00;95145.94;5072101;28;20475;-58
2022/07/28 02:15:22;;;;;;;1.20;1.20;;;;;;;21.32;100.00;95148.91;5072080;28;20463;-58
2022/07/28 02:17:53;;;;;;;2.10;2.00;;;;;;;21.33;100.00;95150.47;5071861;28;20563;-58
2022/07/28 02:20:22;;;;;;;1.30;1.20;;;;;;;21.32;100.00;95157.78;5072360;28;20500;-58
2022/07/28 02:22:53;;;;;;;0.90;0.90;;;;;;;21.18;100.00;95157.34;5072260;28;20472;-58
2022/07/28 02:25:22;;;;;;;1.67;1.57;;;;;;;21.47;100.00;95167.06;5071918;28;20549;-59
2022/07/28 02:27:57;;;;;;;1.00;0.90;;;;;;;21.70;100.00;95159.25;5072292;28;20469;-59
2022/07/28 02:30:34;;;;;;;1.87;1.77;;;;;;;21.45;100.00;95178.19;5071417;28;20811;-59
2022/07/28 02:33:08;;;;;;;0.70;0.70;;;;;;;21.01;100.00;95192.59;5072255;28;20436;-59
2022/07/28 02:35:44;;;;;;;0.50;0.40;;;;;;;20.95;100.00;95175.09;5071884;28;20478;-59
2022/07/28 02:38:22;;;;;;;0.40;0.30;;;;;;;21.45;100.00;95178.19;5071867;28;20433;-59
2022/07/28 02:40:56;;;;;;;1.60;1.50;;;;;;;21.72;100.00;95178.56;5071572;28;20432;-58
2022/07/28 02:43:27;;;;;;;0.80;0.43;;;;;;;21.61;100.00;95185.56;5072148;28;20422;-58
2022/07/28 02:46:19;;;;;;;1.40;1.30;;;;;;;21.74;100.00;95179.78;5070856;28;20496;-58
2022/07/28 02:48:54;;;;;;;0.60;0.50;;;;;;;21.80;100.00;95183.03;5071693;28;20430;-58
2022/07/28 02:51:24;;;;;;;0.60;0.50;;;;;;;21.70;100.00;95173.53;5071704;28;20448;-58
2022/07/28 02:53:54;;;;;;;1.13;0.87;;;;;;;21.73;100.00;95180.91;5071728;28;20429;-58
2022/07/28 02:56:23;;;;;;;0.70;0.60;;;;;;;21.59;100.00;95187.81;5071069;28;20520;-59
2022/07/28 02:58:54;;;;;;;0.73;0.73;;;;;;;21.63;100.00;95194.13;5072769;28;20475;-58
2022/07/28 03:01:23;;;;;;;0.97;0.87;;;;;;;21.83;100.00;95185.06;5075426;28;20516;-58
2022/07/28 03:03:54;;;;;;;0.97;0.87;;;;;;;21.80;100.00;95181.13;5075685;28;20457;-58
2022/07/28 03:06:23;;;;;;;1.23;1.13;;;;;;;21.84;100.00;95183.91;5075479;28;20557;-58
2022/07/28 03:08:56;;;;;;;0.77;0.77;;;;;;;21.93;100.00;95166.50;5075283;28;20440;-58
2022/07/28 03:11:26;;;;;;;4.70;0.67;;;;;;;21.78;100.00;95183.34;5074733;28;20463;-59
2022/07/28 03:13:54;;;;;;;1.37;1.30;;;;;;;20.99;100.00;95186.78;5075113;28;20520;-59
2022/07/28 03:16:22;;;;;;;1.37;1.17;;;;;;;20.85;100.00;95170.16;5074984;28;20888;-59
2022/07/28 03:18:51;;;;;;;0.73;0.73;;;;;;;21.23;100.00;95143.63;5075289;28;20528;-50
2022/07/28 03:21:21;;;;;;;1.33;1.27;;;;;;;21.32;100.00;95183.94;5074541;28;20941;-50
2022/07/28 03:23:51;;;;;;;2.30;2.17;;;;;;;21.14;100.00;95180.72;5075341;28;20464;-50
2022/07/28 03:26:25;;;;;;;2.10;2.00;;;;;;;21.47;100.00;95178.66;5074812;28;20465;-50
2022/07/28 03:28:56;;;;;;;3.07;2.60;;;;;;;21.48;100.00;95176.72;5075196;28;20857;-50
2022/07/28 03:31:27;;;;;;;1.23;1.20;;;;;;;22.16;100.00;95182.91;5074894;28;20511;-50
2022/07/28 03:33:56;;;;;;;3.30;1.73;;;;;;;22.55;100.00;95176.59;5075125;28;20433;-50
2022/07/28 03:36:35;;;;;;;0.63;0.57;;;;;;;22.91;100.00;95170.16;5075059;28;20464;-51
2022/07/28 03:39:07;;;;;;;8.00;2.60;;;;;;;22.95;100.00;95186.44;5074993;28;20429;-51
2022/07/28 03:41:38;;;;;;;1.03;0.93;;;;;;;23.04;100.00;95187.06;5074939;28;20453;-51
2022/07/28 03:44:08;;;;;;;0.80;0.80;;;;;;;23.29;100.00;95191.13;5073964;28;20490;-51
2022/07/28 03:46:43;;;;;;;1.50;1.43;;;;;;;23.46;100.00;95192.66;5074523;28;20848;-51
2022/07/28 03:49:12;;;;;;;1.30;1.20;;;;;;;23.50;100.00;95198.94;5073738;28;20519;-51
2022/07/28 03:51:42;;;;;;;1.50;1.27;;;;;;;23.28;100.00;95173.31;5074264;28;20944;-50
2022/07/28 03:54:10;;;;;;;0.90;0.87;;;;;;;23.54;100.00;95181.66;5074389;28;20453;-51
2022/07/28 03:56:39;;;;;;;2.37;2.27;;;;;;;23.19;100.00;95170.03;5074165;28;20506;-51
2022/07/28 03:59:10;;;;;;;1.57;1.33;;;;;;;23.11;100.00;95198.03;5073624;28;20450;-51
2022/07/28 04:01:38;;;;;;;0.80;0.50;;;;;;;23.17;100.00;95188.53;5073793;28;20532;-51
2022/07/28 04:04:07;;;;;;;1.93;1.83;;;;;;;23.25;100.00;95199.13;5073968;28;20430;-51
2022/07/28 04:06:35;;;;;;;1.90;1.37;;;;;;;23.28;100.00;95176.00;5073677;28;20485;-51
2022/07/28 04:09:05;;;;;;;1.57;1.47;;;;;;;23.28;100.00;95203.06;5073576;28;20504;-51
2022/07/28 04:11:33;;;;;;;0.70;0.63;;;;;;;23.50;100.00;95199.75;5073485;28;20495;-51
2022/07/28 04:14:02;;;;;;;3.00;1.03;;;;;;;23.70;100.00;95195.91;5073838;28;20465;-51
2022/07/28 04:16:30;;;;;;;1.03;1.00;;;;;;;23.65;100.00;95190.78;5073601;28;20507;-51
2022/07/28 04:18:59;;;;;;;0.77;0.77;;;;;;;23.67;100.00;95193.91;5073916;28;20769;-51
2022/07/28 04:21:27;;;;;;;1.30;0.70;;;;;;;23.29;100.00;95113.47;5072613;28;20824;-51
2022/07/28 04:23:56;;;;;;;1.03;0.70;;;;;;;23.74;100.00;95198.69;5073528;28;20440;-51
2022/07/28 04:26:30;;;;;;;2.07;1.97;;;;;;;22.62;100.00;95195.69;5073306;28;20477;-51
2022/07/28 04:28:59;;;;;;;4.40;1.60;;;;;;;21.70;100.00;95205.09;5073302;28;20425;-51
2022/07/28 04:31:30;;;;;;;0.93;0.93;;;;;;;21.46;100.00;95201.34;5073044;28;20459;-52
2022/07/28 04:33:59;;;;;;;1.20;1.10;;;;;;;22.22;100.00;95196.91;5073264;28;20434;-52
2022/07/28 04:36:28;;;;;;;1.77;1.67;;;;;;;22.22;100.00;95132.91;5073358;28;20512;-52
2022/07/28 04:38:58;;;;;;;1.83;1.73;;;;;;;22.38;100.00;95187.72;5073292;28;20425;-50
2022/07/28 04:41:26;;;;;;;2.70;1.90;;;;;;;21.93;100.00;95168.41;5073215;28;20433;-51
2022/07/28 04:43:58;;;;;;;1.33;0.97;;;;;;;22.62;100.00;95176.78;5073138;28;20465;-51
2022/07/28 04:46:26;;;;;;;4.30;0.97;;;;;;;23.32;100.00;95190.41;5073037;28;20973;-51
2022/07/28 04:48:55;;;;;;;1.20;1.10;;;;;;;23.11;100.00;95198.03;5073062;28;20528;-52
2022/07/28 04:51:23;;;;;;;1.23;1.07;;;;;;;23.04;100.00;95187.06;5072879;28;20524;-51
2022/07/28 04:53:52;;;;;;;4.13;1.80;;;;;;;22.76;100.00;95189.88;5072849;28;20484;-51
2022/07/28 04:56:21;;;;;;;2.53;0.97;;;;;;;22.84;100.00;95186.22;5071969;28;20539;-51
2022/07/28 04:58:49;;;;;;;2.97;1.17;;;;;;;22.56;100.00;95186.28;5072811;28;20520;-51
2022/07/28 05:01:20;;;;;;;1.10;1.00;;;;;;;22.48;100.00;95172.94;5073084;28;20417;-52
2022/07/28 05:03:49;;;;;;;2.50;1.37;;;;;;;21.93;100.00;95031.56;5073053;28;20433;-52
2022/07/28 05:06:17;;;;;;;1.67;1.30;;;;;;;22.97;100.00;95176.84;5072160;28;20516;-52
2022/07/28 05:08:46;;;;;;;5.60;2.10;;;;;;;22.64;100.00;95155.59;5072076;28;20528;-52
2022/07/28 05:11:14;;;;;;;1.13;1.03;;;;;;;22.27;100.00;95181.25;5072645;28;20837;-50
2022/07/28 05:13:44;;;;;;;1.77;1.10;;;;;;;21.92;100.00;95174.91;5072611;28;20520;-50
2022/07/28 05:16:12;;;;;;;2.37;2.27;;;;;;;22.08;100.00;95194.66;5072351;28;21141;-50
2022/07/28 05:18:42;;;;;;;1.40;0.70;;;;;;;22.77;100.00;95170.59;5072332;28;20469;-50
2022/07/28 05:21:10;;;;;;;2.87;1.83;;;;;;;22.25;100.00;95191.63;5071618;28;20425;-50
2022/07/28 05:23:41;;;;;;;1.47;1.37;;;;;;;22.53;100.00;95186.97;5072289;28;20437;-50
2022/07/28 05:26:14;;;;;;;3.80;3.00;;;;;;;22.51;100.00;95194.63;5072164;28;20486;-51
2022/07/28 05:28:43;;;;;;;1.10;1.00;;;;;;;22.31;100.00;95174.06;5072591;28;20468;-51
2022/07/28 05:31:11;;;;;;;5.90;1.60;;;;;;;23.04;100.00;95189.78;5072185;28;20977;-51
2022/07/28 05:33:40;;;;;;;1.60;1.50;;;;;;;22.83;100.00;95192.75;5072193;28;20930;-57
2022/07/28 05:36:11;;;;;;;3.83;2.20;;;;;;;22.33;100.00;95163.69;5071918;28;21001;-58
2022/07/28 05:38:40;;;;;;;2.10;1.97;;;;;;;22.44;100.00;95194.44;5072115;28;20493;-57
2022/07/28 05:41:08;;;;;;;1.33;1.17;;;;;;;22.63;100.00;95188.38;5071969;28;20992;-57
2022/07/28 05:43:37;;;;;;;2.00;1.90;;;;;;;22.63;100.00;95186.47;5071941;28;20497;-57
2022/07/28 05:46:06;;;;;;;1.63;0.70;;;;;;;22.70;100.00;95189.34;5071928;28;20461;-57
2022/07/28 05:48:35;;;;;;;2.80;1.83;;;;;;;22.54;100.00;95191.22;5071827;28;20457;-56
2022/07/28 05:51:05;;;;;;;1.50;1.40;;;;;;;23.17;100.00;95197.41;5071633;28;20429;-57
2022/07/28 05:53:35;;;;;;;3.17;3.00;;;;;;;23.19;100.00;95194.38;5072311;28;20520;-56
2022/07/28 05:56:04;;;;;;;2.60;2.50;;;;;;;23.04;100.00;95195.97;5071367;28;20516;-57
2022/07/28 05:58:33;;;;;;;2.17;2.07;;;;;;;23.80;100.00;95186.44;5071685;28;20430;-58
2022/07/28 06:01:02;;;;;;;2.00;1.90;;;;;;;23.97;100.00;95181.38;5071936;28;20457;-58
2022/07/28 06:03:33;;;;;;;2.30;1.30;;;;;;;24.68;100.00;95182.72;5071981;28;20437;-58
2022/07/28 06:06:09;;;;;;;3.27;3.03;;;;;;;23.80;100.00;95187.22;5071724;28;20477;-58
2022/07/28 06:08:46;;;;;;;5.27;3.07;;;;;;;23.68;100.00;95184.66;5071366;28;20905;-58
2022/07/28 06:11:16;;;;;;;3.47;3.17;;;;;;;23.74;100.00;95187.84;5071664;28;20520;-58
2022/07/28 06:13:51;;;;;;;1.60;1.33;;;;;;;24.59;100.00;95193.00;5071648;28;20516;-59
2022/07/28 06:16:21;;;;;;;6.90;1.43;;;;;;;24.46;100.00;95202.47;5071148;28;20512;-59
2022/07/28 06:18:50;;;;;;;1.50;1.40;;;;;;;24.58;100.00;95194.16;5071530;28;20437;-59
2022/07/28 06:21:19;;;;;;;1.20;1.10;;;;;;;25.44;100.00;95191.66;5071490;28;20922;-59
2022/07/28 06:23:49;;;;;;;1.40;1.30;;;;;;;25.21;100.00;95189.78;5071446;28;20955;-59
2022/07/28 06:26:19;;;;;;;1.87;1.77;;;;;;;25.98;100.00;95186.59;5071573;28;20469;-59
2022/07/28 06:28:48;;;;;;;1.30;1.30;;;;;;;26.70;100.00;95183.47;5071574;28;20481;-60
2022/07/28 06:31:16;;;;;;;3.20;2.87;;;;;;;26.20;100.00;95185.72;5071400;28;20441;-59
2022/07/28 06:33:44;;;;;;;0.97;0.97;;;;;;;26.59;100.00;95190.78;5074044;28;20942;-59
2022/07/28 06:36:13;;;;;;;0.87;0.87;;;;;;;27.25;100.00;95192.53;5075473;28;20524;-58
2022/07/28 06:38:41;;;;;;;1.27;1.17;;;;;;;27.47;100.00;95186.88;5075252;28;20930;-58
2022/07/28 06:41:11;;;;;;;2.40;2.20;;;;;;;27.01;100.00;95191.16;5074460;28;20468;-57
2022/07/28 06:43:39;;;;;;;1.33;1.23;;;;;;;27.41;100.00;95185.66;5075116;28;20460;-57
2022/07/28 06:46:08;;;;;;;2.03;1.90;;;;;;;27.03;100.00;95191.56;5075011;28;20464;-57
2022/07/28 06:48:38;;;;;;;1.60;1.50;;;;;;;27.05;100.00;95186.53;5075266;28;20439;-57
2022/07/28 06:51:07;;;;;;;1.30;1.20;;;;;;;28.10;100.00;95174.75;5075392;28;20905;-57
2022/07/28 06:53:35;;;;;;;1.63;1.53;;;;;;;27.91;100.00;95180.47;5075111;28;20447;-57
2022/07/28 06:56:05;;;;;;;2.10;2.00;;;;;;;27.98;96.59;95180.50;5075180;28;20434;-57
2022/07/28 06:58:36;;;;;;;1.10;0.93;;;;;;;28.08;97.89;95174.34;5075201;28;20457;-57
2022/07/28 07:01:06;;;;;;;1.83;1.73;;;;;;;28.25;98.08;95168.16;5074980;28;20479;-57
2022/07/28 07:03:35;;;;;;;1.20;1.10;;;;;;;29.20;93.55;95167.53;5074662;28;20824;-57
2022/07/28 07:06:03;;;;;;;0.73;0.70;;;;;;;29.21;89.53;95169.09;5074873;28;20520;-57
2022/07/28 07:08:32;;;;;;;2.00;1.90;;;;;;;29.13;93.26;95164.78;5074705;28;20835;-58
2022/07/28 07:11:00;;;;;;;0.63;0.63;;;;;;;30.03;85.69;95160.31;5075028;28;20517;-57
2022/07/28 07:13:29;;;;;;;1.30;1.10;;;;;;;30.02;83.05;95168.91;5074701;28;20434;-57
2022/07/28 07:15:59;;;;;;;1.33;1.23;;;;;;;29.61;85.39;95160.44;5074628;28;20516;-58
2022/07/28 07:18:27;;;;;;;3.10;1.50;;;;;;;29.27;90.11;95164.81;5074807;28;20417;-58
2022/07/28 07:20:57;;;;;;;1.60;1.50;;;;;;;29.39;92.71;95167.13;5074797;28;20463;-58
2022/07/28 07:23:26;;;;;;;3.90;1.10;;;;;;;29.81;90.06;95158.84;5074489;28;20853;-58
2022/07/28 07:25:54;;;;;;;1.70;1.40;;;;;;;29.25;89.42;95157.00;5074733;28;20458;-59
2022/07/28 07:28:23;;;;;;;1.10;1.07;;;;;;;29.38;86.70;95165.56;5074671;28;20552;-58
2022/07/28 07:30:51;;;;;;;2.83;0.83;;;;;;;30.26;76.12;95162.53;5074478;28;20478;-57
2022/07/28 07:33:21;;;;;;;0.80;0.70;;;;;;;30.52;82.99;95158.50;5074770;28;20522;-59
2022/07/28 07:35:49;;;;;;;0.50;0.40;;;;;;;30.90;73.94;95154.75;5074468;28;20866;-58
2022/07/28 07:38:18;;;;;;;0.60;0.60;;;;;;;30.51;73.67;95097.56;5074009;28;20548;-58
2022/07/28 07:40:46;;;;;;;1.60;1.50;;;;;;;31.05;77.10;95125.28;5074023;28;20951;-58
2022/07/28 07:43:15;;;;;;;1.70;1.60;;;;;;;31.35;80.54;95145.34;5074547;28;20419;-59
2022/07/28 07:45:43;;;;;;;0.50;0.50;;;;;;;31.93;72.56;95149.06;5073763;28;20433;-59
2022/07/28 07:48:12;;;;;;;3.03;1.50;;;;;;;31.46;70.98;95108.88;5074543;28;20561;-59
2022/07/28 07:50:41;;;;;;;1.03;1.03;;;;;;;31.59;70.47;95129.09;5074449;28;20437;-59
2022/07/28 07:53:10;;;;;;;2.00;1.90;;;;;;;31.70;67.30;95144.22;5074343;28;20429;-60
2022/07/28 07:55:38;;;;;;;1.23;1.23;;;;;;;32.16;63.91;95145.66;5074555;28;20456;-60
2022/07/28 07:58:07;;;;;;;6.60;1.37;;;;;;;32.27;65.18;95144.34;5074439;28;20509;-59
2022/07/28 08:00:35;;;;;;;1.07;1.07;;;;;;;32.83;58.80;95145.53;5074010;28;20878;-59
2022/07/28 08:03:05;;;;;;;0.40;0.40;;;;;;;33.64;55.13;95137.91;5074031;28;20427;-59
2022/07/28 08:05:38;;;;;;;2.67;1.33;;;;;;;33.16;58.11;95141.88;5074168;28;20530;-59
2022/07/28 08:08:08;;;;;;;2.30;1.30;;;;;;;33.57;52.75;95138.81;5074062;28;20562;-60
2022/07/28 08:10:39;;;;;;;0.40;0.30;;;;;;;34.08;52.96;95118.16;5074026;28;20506;-59
2022/07/28 08:13:08;;;;;;;0.50;0.30;;;;;;;34.60;51.28;95133.97;5074337;28;20429;-60
2022/07/28 08:15:37;;;;;;;2.93;0.93;;;;;;;34.41;47.49;95136.31;5073791;28;20504;-59
2022/07/28 08:18:05;;;;;;;1.00;0.97;;;;;;;34.13;49.53;95136.16;5074080;28;20932;-59
2022/07/28 08:20:34;;;;;;;0.63;0.50;;;;;;;34.73;52.08;95137.59;5074056;28;20480;-59
2022/07/28 08:23:02;;;;;;;1.33;0.70;;;;;;;35.12;53.41;95139.47;5073832;28;20524;-59
2022/07/28 08:25:35;;;;;;;0.57;0.50;;;;;;;35.13;46.65;95141.00;5073910;28;20416;-59
2022/07/28 08:28:04;;;;;;;1.00;1.00;;;;;;;34.29;45.82;95138.94;5073442;28;20538;-58
2022/07/28 08:30:33;;;;;;;2.43;1.30;;;;;;;33.96;48.51;95137.25;5073649;28;21056;-59
2022/07/28 08:33:01;;;;;;;0.70;0.70;;;;;;;34.89;45.97;95132.13;5072982;28;20528;-59
2022/07/28 08:35:30;;;;;;;0.60;0.60;;;;;;;35.35;45.58;95139.22;5073507;28;20191;-59
2022/07/28 08:38:01;;;;;;;0.80;0.80;;;;;;;35.63;42.68;95138.53;5073648;28;20189;-58
2022/07/28 08:40:31;;;;;;;0.50;0.43;;;;;;;35.84;45.42;95134.41;5073537;28;20561;-58
2022/07/28 08:43:07;;;;;;;3.30;2.20;;;;;;;35.85;46.23;95133.97;5073466;28;20538;-58
2022/07/28 08:45:39;;;;;;;1.10;1.10;;;;;;;35.09;47.93;95135.59;5072729;28;20187;-58
2022/07/28 08:48:11;;;;;;;1.67;1.10;;;;;;;35.11;48.24;95133.16;5073418;28;20214;-55
2022/07/28 08:50:42;;;;;;;0.60;0.60;;;;;;;34.63;50.12;95131.16;5073250;28;20230;-56
2022/07/28 08:53:11;;;;;;;0.90;0.90;;;;;;;35.54;46.43;95124.59;5073244;28;20777;-56
2022/07/28 08:55:40;;;;;;;1.27;1.17;;;;;;;35.58;43.07;95128.03;5073112;28;20241;-55
2022/07/28 08:58:12;;;;;;;1.13;0.80;;;;;;;35.86;41.12;95085.88;5072073;28;20233;-57
2022/07/28 09:00:41;;;;;;;0.70;0.60;;;;;;;36.28;40.24;95119.75;5072910;28;20221;-58
2022/07/28 09:03:12;;;;;;;6.77;0.83;;;;;;;36.37;41.18;95121.84;5073333;28;20182;-58
2022/07/28 09:05:42;;;;;;;1.17;1.17;;;;;;;36.55;37.93;95122.13;5073281;28;20201;-58
2022/07/28 09:08:12;;;;;;;1.23;1.23;;;;;;;36.28;38.87;95070.09;5072781;28;20607;-57
2022/07/28 09:10:40;;;;;;;0.70;0.70;;;;;;;36.37;38.19;95119.09;5072922;28;20725;-56
2022/07/28 09:13:10;;;;;;;0.90;0.90;;;;;;;36.01;37.64;95125.66;5073031;28;20226;-59
2022/07/28 09:15:40;;;;;;;0.52;0.52;;;;;;;36.90;35.76;95116.25;5072620;28;20635;-61
2022/07/28 09:18:09;;;;;;;2.05;1.95;;;;;;;36.57;37.36;95119.69;5072952;28;20198;-57
2022/07/28 09:20:38;;;;;;;1.75;1.65;;;;;;;36.04;36.90;95113.75;5072655;28;20609;-58
2022/07/28 09:23:08;;;;;;;1.70;0.93;;;;;;;37.12;37.52;95098.97;5072912;28;20190;-58
2022/07/28 09:26:06;;;;;;;0.68;0.63;;;;;;;37.19;35.61;95099.50;5072593;28;20198;-58
2022/07/28 09:28:53;;;;;;;1.27;1.00;;;;;;;37.39;38.05;95102.03;5071826;28;20222;-58
2022/07/28 09:31:22;;;;;;;4.03;1.67;;;;;;;36.67;39.57;95102.00;5072544;28;20278;-59
2022/07/28 09:34:00;;;;;;;1.02;1.02;;;;;;;36.29;35.32;95072.38;5071786;28;20186;-59
2022/07/28 09:36:30;;;;;;;3.13;1.88;;;;;;;35.69;35.75;95100.94;5072383;28;20240;-58
2022/07/28 09:38:58;;;;;;;0.82;0.82;;;;;;;36.95;34.49;95092.06;5071796;28;20245;-58
2022/07/28 09:41:26;;;;;;;0.68;0.68;;;;;;;37.41;36.09;95089.31;5072429;28;20621;-57
2022/07/28 09:43:56;;;;;;;5.18;0.52;;;;;;;37.60;32.96;95084.69;5072228;28;20360;-58
2022/07/28 09:46:25;;;;;;;1.80;1.70;;;;;;;36.77;33.89;95085.09;5072389;28;20270;-57
2022/07/28 09:48:59;;;;;;;0.73;0.60;;;;;;;37.64;31.89;95082.59;5072185;28;20218;-56
2022/07/28 09:51:29;;;;;;;8.32;0.60;;;;;;;38.13;30.71;95080.00;5072605;28;20270;-55
2022/07/28 09:54:08;;;;;;;1.73;0.70;;;;;;;37.93;31.99;95085.09;5072169;28;20721;-54
2022/07/28 09:56:37;;;;;;;1.50;1.40;;;;;;;37.17;34.09;95085.38;5072209;28;20186;-54
2022/07/28 09:59:08;;;;;;;1.48;1.33;;;;;;;37.51;33.94;95062.50;5072033;28;20226;-54
2022/07/28 10:01:52;;;;;;;0.93;0.80;;;;;;;37.50;32.03;95072.00;5072349;28;20190;-53
2022/07/28 10:04:34;;;;;;;1.40;1.30;;;;;;;36.99;31.20;95074.13;5072043;28;20272;-54
2022/07/28 10:07:05;;;;;;;2.08;1.98;;;;;;;36.67;31.23;95064.13;5072251;28;20222;-54
2022/07/28 10:09:34;;;;;;;0.88;0.88;;;;;;;36.61;32.02;95048.56;5072142;28;20300;-54
2022/07/28 10:12:20;;;;;;;0.77;0.77;;;;;;;36.65;32.37;95065.78;5071524;28;20233;-55
2022/07/28 10:14:51;;;;;;;1.40;1.10;;;;;;;36.78;32.46;95067.31;5071525;28;20637;-54
2022/07/28 10:17:29;;;;;;;1.40;1.30;;;;;;;37.32;33.92;95058.78;5071352;28;20279;-54
2022/07/28 10:19:59;;;;;;;0.50;0.47;;;;;;;37.38;31.95;95059.78;5070622;28;20323;-54
2022/07/28 10:22:31;;;;;;;1.15;1.05;;;;;;;37.41;30.70;95050.63;5071527;28;20190;-54
2022/07/28 10:25:02;;;;;;;0.98;0.98;;;;;;;37.23;31.68;95050.44;5071364;28;20666;-54
2022/07/28 10:27:32;;;;;;;0.85;0.85;;;;;;;38.41;30.40;95044.94;5071456;28;20179;-54
2022/07/28 10:30:05;;;;;;;0.90;0.85;;;;;;;37.69;30.07;95048.03;5071414;28;20763;-54
2022/07/28 10:32:41;;;;;;;1.55;1.50;;;;;;;37.24;28.98;95049.19;5071868;28;20228;-56
2022/07/28 10:35:12;;;;;;;0.88;0.63;;;;;;;38.38;28.95;95046.63;5071440;28;20275;-57
2022/07/28 10:37:46;;;;;;;0.93;0.93;;;;;;;38.32;30.05;95045.69;5071306;28;20655;-57
2022/07/28 10:40:18;;;;;;;0.73;0.73;;;;;;;38.18;30.64;94999.13;5071395;28;20214;-57
2022/07/28 10:42:46;;;;;;;0.93;0.93;;;;;;;38.00;29.37;95035.06;5071602;28;20191;-58
2022/07/28 10:45:17;;;;;;;1.75;1.65;;;;;;;37.63;29.04;95039.53;5071524;28;20698;-57
2022/07/28 10:47:45;;;;;;;1.25;1.15;;;;;;;37.19;29.61;95021.38;5071271;28;20646;-59
2022/07/28 10:50:14;;;;;;;1.60;1.15;;;;;;;37.62;29.82;95045.53;5070982;28;20295;-59
2022/07/28 10:52:45;;;;;;;2.95;0.70;;;;;;;38.19;30.41;95042.22;5071274;28;20269;-56
2022/07/28 10:55:23;;;;;;;0.88;0.88;;;;;;;38.48;28.16;95031.56;5070843;28;20286;-59
2022/07/28 10:58:07;;;;;;;22.33;1.98;;;;;;;37.97;28.53;95044.25;5070236;28;20655;-57
2022/07/28 11:00:46;;;;;;;1.80;1.23;;;;;;;37.61;28.43;95032.91;5071061;28;20195;-59
2022/07/28 11:03:41;;;;;;;1.10;1.10;;;;;;;38.26;28.29;95030.84;5071471;28;20190;-57
2022/07/28 11:06:25;;;;;;;3.92;0.80;;;;;;;37.55;28.14;95020.91;5071473;28;20199;-56
2022/07/28 11:08:54;;;;;;;0.60;0.60;;;;;;;37.71;28.97;94998.56;5071327;28;20212;-56
2022/07/28 11:11:44;;;;;;;2.40;0.88;;;;;;;37.87;28.84;95028.81;5071101;28;20234;-56
2022/07/28 11:14:35;;;;;;;0.98;0.98;;;;;;;38.41;28.92;95026.31;5071642;28;20209;-56
2022/07/28 11:17:15;;;;;;;1.67;1.58;;;;;;;38.14;29.31;95024.19;5071042;28;20257;-56
2022/07/28 11:19:56;;;;;;;1.00;0.93;;;;;;;38.30;30.16;95031.53;5072001;28;20229;-55
2022/07/28 11:22:44;;;;;;;0.75;0.75;;;;;;;38.26;29.26;95014.25;5074527;28;20190;-56
2022/07/28 11:25:16;;;;;;;0.50;0.50;;;;;;;39.27;28.86;95019.59;5074523;28;20195;-57
2022/07/28 11:28:05;;;;;;;1.00;0.98;;;;;;;38.08;27.32;94994.78;5074915;28;20198;-56
2022/07/28 11:30:54;;;;;;;0.95;0.95;;;;;;;38.07;27.84;95021.72;5074578;28;20280;-56
2022/07/28 11:33:26;;;;;;;1.17;1.08;;;;;;;39.30;27.72;95018.69;5071461;28;20195;-56
2022/07/28 11:35:56;;;;;;;0.73;0.73;;;;;;;39.50;25.93;95015.44;5074294;28;20185;-54
2022/07/28 11:38:25;;;;;;;1.25;0.82;;;;;;;39.49;26.31;95025.00;5074342;28;20269;-56
2022/07/28 11:40:56;;;;;;;1.33;0.88;;;;;;;39.49;26.11;95022.22;5074455;28;20223;-57
2022/07/28 11:43:31;;;;;;;1.38;1.10;;;;;;;38.70;24.97;95025.94;5074504;28;20283;-57
2022/07/28 11:46:34;;;;;;;1.17;1.13;;;;;;;38.52;25.87;95009.28;5074515;28;20234;-57
2022/07/28 11:49:22;;;;;;;3.63;2.42;;;;;;;38.65;24.86;95019.03;5074572;28;20218;-55
2022/07/28 11:52:23;;;;;;;1.15;1.00;;;;;;;37.94;25.09;95011.94;5074512;28;20214;-55